KHPN/HPN METAR and TAF weather

Enter ICAO airport designator
Station Type Date Time Source
KHPN METAR 2019/10/19 07:56 UTC NOAA

KHPN 190756Z 00000KT 10SM CLR 03/01 A3000 RMK AO2 SLP164 T00280011 $


Station Type Date Time Source
KHPN Decoded METAR 2019/10/19 07:56 UTC NOAA

WHITE PLAINS WESTCHESTER, NY, United States (KHPN) 41-04N 073-42W 121M
Oct 19, 2019 - 03:56 AM EDT / 2019.10.19 0756 UTC
Wind: Calm:0
Visibility: 10 mile(s):0
Sky conditions: clear
Temperature: 37.0 F (2.8 C)
Dew Point: 34.0 F (1.1 C)
Relative Humidity: 88%
Pressure (altimeter): 30 in. Hg (1015 hPa)
ob: KHPN 190756Z 00000KT 10SM CLR 03/01 A3000 RMK AO2 SLP164 T00280011
cycle: 8

Station Type Date Time Source
KHPN TAF 2019/10/19 06:24 UTC NOAA

TAF KHPN 190521Z 1906/2006 31006KT P6SM SKC
FM190900 VRB04KT P6SM SKC
FM191500 29006KT P6SM FEW250
FM192000 25005KT P6SM FEW250
FM200000 VRB03KT P6SM BKN250
AMD NOT SKED

Example: see airport list